createdAt,value
2018-07-20T00:00:02.710Z,1012.32
2018-07-20T00:01:02.775Z,1012.30
2018-07-20T00:02:02.847Z,1012.32
2018-07-20T00:03:02.919Z,1012.31
2018-07-20T00:04:02.999Z,1012.27
2018-07-20T00:05:03.043Z,1012.27
2018-07-20T00:06:03.107Z,1012.29
2018-07-20T00:07:03.184Z,1012.28
2018-07-20T00:08:03.555Z,1012.25
2018-07-20T00:09:03.311Z,1012.27
2018-07-20T00:10:03.379Z,1012.22
2018-07-20T00:11:03.439Z,1012.22
2018-07-20T00:12:03.507Z,1012.22
2018-07-20T00:13:03.578Z,1012.20
2018-07-20T00:14:03.647Z,1012.21
2018-07-20T00:15:03.711Z,1012.21
2018-07-20T00:16:03.779Z,1012.21
2018-07-20T00:17:03.839Z,1012.21
2018-07-20T00:18:03.911Z,1012.20
2018-07-20T00:19:03.991Z,1012.20
2018-07-20T00:20:04.039Z,1012.18
2018-07-20T00:21:04.111Z,1012.18
2018-07-20T00:22:04.234Z,1012.17
2018-07-20T00:23:04.251Z,1012.16
2018-07-20T00:24:04.303Z,1012.17
2018-07-20T00:25:04.371Z,1012.16
2018-07-20T00:26:04.435Z,1012.10
2018-07-20T00:27:04.503Z,1012.08
2018-07-20T00:28:04.575Z,1012.12
2018-07-20T00:29:04.643Z,1012.10
2018-07-20T00:30:04.700Z,1012.13
2018-07-20T00:31:04.768Z,1012.10
2018-07-20T00:32:04.835Z,1012.13
2018-07-20T00:33:04.919Z,1012.14
2018-07-20T00:34:04.972Z,1012.10
2018-07-20T00:35:05.032Z,1012.03
2018-07-20T00:36:05.100Z,1012.08
2018-07-20T00:37:05.164Z,1012.07
2018-07-20T00:38:05.247Z,1012.05
2018-07-20T00:39:05.504Z,1012.10
2018-07-20T00:40:05.363Z,1012.07
2018-07-20T00:41:05.428Z,1012.06
2018-07-20T00:42:05.497Z,1012.06
2018-07-20T00:43:05.572Z,1012.11
2018-07-20T00:44:05.650Z,1012.05
2018-07-20T00:45:05.700Z,1012.06
2018-07-20T00:46:05.760Z,1012.04
2018-07-20T00:47:05.828Z,1012.04
2018-07-20T00:48:05.892Z,1012.02
2018-07-20T00:49:05.965Z,1012.01
2018-07-20T00:50:06.032Z,1012.02
2018-07-20T00:51:06.092Z,1011.97
2018-07-20T00:52:06.156Z,1011.98
2018-07-20T00:53:06.224Z,1011.96
2018-07-20T00:54:06.288Z,1011.93
2018-07-20T00:55:06.616Z,1011.98
2018-07-20T00:56:06.432Z,1011.94
2018-07-20T00:57:06.493Z,1011.95
2018-07-20T00:58:06.552Z,1011.95
2018-07-20T00:59:06.621Z,1011.94
2018-07-20T01:00:06.693Z,1011.93
2018-07-20T01:01:06.757Z,1011.94
2018-07-20T01:02:06.817Z,1011.94
2018-07-20T01:03:06.896Z,1011.94
2018-07-20T01:04:06.949Z,1011.90
2018-07-20T01:05:07.028Z,1011.93
2018-07-20T01:06:07.089Z,1011.91
2018-07-20T01:07:07.149Z,1011.91
2018-07-20T01:08:07.228Z,1011.91
2018-07-20T01:09:07.278Z,1011.88
2018-07-20T01:10:07.452Z,1011.90
2018-07-20T01:11:07.413Z,1011.84
2018-07-20T01:12:07.477Z,1011.90
2018-07-20T01:13:07.543Z,1011.87
2018-07-20T01:14:07.609Z,1011.88
2018-07-20T01:15:07.685Z,1011.85
2018-07-20T01:16:07.749Z,1011.89
2018-07-20T01:17:07.809Z,1011.91
2018-07-20T01:18:07.889Z,1011.88
2018-07-20T01:19:07.941Z,1011.87
2018-07-20T01:20:08.014Z,1011.87
2018-07-20T01:21:08.079Z,1011.81
2018-07-20T01:22:08.137Z,1011.83
2018-07-20T01:23:08.205Z,1011.84
2018-07-20T01:24:08.269Z,1011.82
2018-07-20T01:25:08.529Z,1011.82
2018-07-20T01:26:08.397Z,1011.84
2018-07-20T01:27:08.465Z,1011.88
2018-07-20T01:28:08.529Z,1011.87
2018-07-20T01:29:08.602Z,1011.86
2018-07-20T01:30:08.669Z,1011.87
2018-07-20T01:31:08.733Z,1011.90
2018-07-20T01:32:08.793Z,1011.82
2018-07-20T01:33:08.860Z,1011.86
2018-07-20T01:34:08.929Z,1011.84
2018-07-20T01:35:09.001Z,1011.87
2018-07-20T01:36:09.069Z,1011.88
2018-07-20T01:37:09.121Z,1011.80
2018-07-20T01:38:09.190Z,1011.84
2018-07-20T01:39:09.249Z,1011.87
2018-07-20T01:40:09.321Z,1011.88
2018-07-20T01:41:09.417Z,1011.83
2018-07-20T01:42:09.449Z,1011.82
2018-07-20T01:43:09.518Z,1011.82
2018-07-20T01:44:09.581Z,1011.84
2018-07-20T01:45:09.653Z,1011.82
2018-07-20T01:46:09.721Z,1011.81
2018-07-20T01:47:09.790Z,1011.81
2018-07-20T01:48:09.850Z,1011.79
2018-07-20T01:49:09.909Z,1011.76
2018-07-20T01:50:09.977Z,1011.77
2018-07-20T01:51:10.050Z,1011.76
2018-07-20T01:52:10.114Z,1011.75
2018-07-20T01:53:10.174Z,1011.75
2018-07-20T01:54:10.238Z,1011.75
2018-07-20T01:55:10.302Z,1011.79
2018-07-20T01:56:10.383Z,1011.75
2018-07-20T01:57:10.454Z,1011.74
2018-07-20T01:58:10.502Z,1011.76
2018-07-20T01:59:10.570Z,1011.75
2018-07-20T02:00:10.634Z,1011.78
2018-07-20T02:01:10.707Z,1011.78
2018-07-20T02:02:10.771Z,1011.76
2018-07-20T02:03:10.835Z,1011.73
2018-07-20T02:04:10.903Z,1011.78
2018-07-20T02:05:10.965Z,1011.77
2018-07-20T02:06:11.059Z,1011.70
2018-07-20T02:07:11.099Z,1011.69
2018-07-20T02:08:11.159Z,1011.69
2018-07-20T02:09:11.223Z,1011.73
2018-07-20T02:10:11.291Z,1011.70
2018-07-20T02:11:11.363Z,1011.72
2018-07-20T02:12:11.426Z,1011.69
2018-07-20T02:13:11.487Z,1011.68
2018-07-20T02:14:11.551Z,1011.69
2018-07-20T02:15:11.619Z,1011.68
2018-07-20T02:16:11.691Z,1011.66
2018-07-20T02:17:11.755Z,1011.64
2018-07-20T02:18:11.815Z,1011.67
2018-07-20T02:19:11.879Z,1011.66
2018-07-20T02:20:11.947Z,1011.65
2018-07-20T02:21:12.015Z,1011.65
2018-07-20T02:22:12.093Z,1011.66
2018-07-20T02:23:12.146Z,1011.66
2018-07-20T02:24:12.207Z,1011.68
2018-07-20T02:25:12.271Z,1011.66
2018-07-20T02:26:12.345Z,1011.64
2018-07-20T02:27:12.412Z,1011.64
2018-07-20T02:28:12.468Z,1011.64
2018-07-20T02:29:12.535Z,1011.67
2018-07-20T02:30:12.600Z,1011.65
2018-07-20T02:31:12.672Z,1011.65
2018-07-20T02:32:12.749Z,1011.62
2018-07-20T02:33:12.795Z,1011.67
2018-07-20T02:34:12.860Z,1011.62
2018-07-20T02:35:12.931Z,1011.63
2018-07-20T02:36:13.005Z,1011.61
2018-07-20T02:37:13.064Z,1011.62
2018-07-20T02:38:13.124Z,1011.63
2018-07-20T02:39:13.188Z,1011.62
2018-07-20T02:40:13.255Z,1011.61
2018-07-20T02:41:13.320Z,1011.63
2018-07-20T02:42:13.404Z,1011.66
2018-07-20T02:43:13.456Z,1011.61
2018-07-20T02:44:13.516Z,1011.61
2018-07-20T02:45:13.580Z,1011.61
2018-07-20T02:46:13.647Z,1011.60
2018-07-20T02:47:13.724Z,1011.57
2018-07-20T02:48:13.784Z,1011.60
2018-07-20T02:49:13.847Z,1011.59
2018-07-20T02:50:13.909Z,1011.59
2018-07-20T02:51:13.976Z,1011.57
2018-07-20T02:52:14.044Z,1011.60
2018-07-20T02:53:14.112Z,1011.58
2018-07-20T02:54:14.168Z,1011.57
2018-07-20T02:55:14.244Z,1011.58
2018-07-20T02:56:14.300Z,1011.53
2018-07-20T02:57:14.376Z,1011.53
2018-07-20T02:58:14.436Z,1011.56
2018-07-20T02:59:14.500Z,1011.57
2018-07-20T03:00:14.561Z,1011.56
2018-07-20T03:01:14.629Z,1011.57
2018-07-20T03:02:14.701Z,1011.57
2018-07-20T03:03:14.764Z,1011.56
2018-07-20T03:04:14.821Z,1011.55
2018-07-20T03:05:14.889Z,1011.57
2018-07-20T03:06:14.959Z,1011.55
2018-07-20T03:07:15.027Z,1011.53
2018-07-20T03:08:15.102Z,1011.54
2018-07-20T03:09:15.149Z,1011.53
2018-07-20T03:10:15.213Z,1011.53
2018-07-20T03:11:15.281Z,1011.50
2018-07-20T03:12:15.357Z,1011.50
2018-07-20T03:13:15.417Z,1011.52
2018-07-20T03:14:15.482Z,1011.52
2018-07-20T03:15:15.541Z,1011.56
2018-07-20T03:16:15.606Z,1011.55
2018-07-20T03:17:15.698Z,1011.55
2018-07-20T03:18:15.746Z,1011.54
2018-07-20T03:19:15.801Z,1011.55
2018-07-20T03:20:15.869Z,1011.58
2018-07-20T03:21:15.934Z,1011.57
2018-07-20T03:22:16.006Z,1011.56
2018-07-20T03:23:16.070Z,1011.54
2018-07-20T03:24:16.130Z,1011.56
2018-07-20T03:25:16.193Z,1011.57
2018-07-20T03:26:16.258Z,1011.57
2018-07-20T03:27:16.325Z,1011.54
2018-07-20T03:28:16.497Z,1011.54
2018-07-20T03:29:16.454Z,1011.55
2018-07-20T03:30:16.518Z,1011.58
2018-07-20T03:31:16.586Z,1011.55
2018-07-20T03:32:16.652Z,1011.57
2018-07-20T03:33:16.729Z,1011.54
2018-07-20T03:34:16.786Z,1011.56
2018-07-20T03:35:16.846Z,1011.58
2018-07-20T03:36:16.913Z,1011.56
2018-07-20T03:37:16.980Z,1011.54
2018-07-20T03:38:17.046Z,1011.55
2018-07-20T03:39:17.114Z,1011.56
2018-07-20T03:40:17.170Z,1011.58
2018-07-20T03:41:17.238Z,1011.57
2018-07-20T03:42:17.304Z,1011.58
2018-07-20T03:43:17.474Z,1011.57
2018-07-20T03:44:17.430Z,1011.57
2018-07-20T03:45:17.498Z,1011.54
2018-07-20T03:46:17.562Z,1011.56
2018-07-20T03:47:17.626Z,1011.56
2018-07-20T03:48:17.703Z,1011.55
2018-07-20T03:49:17.782Z,1011.58
2018-07-20T03:50:17.822Z,1011.51
2018-07-20T03:51:17.891Z,1011.51
2018-07-20T03:52:17.986Z,1011.53
2018-07-20T03:53:18.023Z,1011.51
2018-07-20T03:54:18.091Z,1011.47
2018-07-20T03:55:18.151Z,1011.47
2018-07-20T03:56:18.215Z,1011.48
2018-07-20T03:57:18.280Z,1011.47
2018-07-20T03:58:18.451Z,1011.45
2018-07-20T03:59:18.411Z,1011.41
2018-07-20T04:00:18.477Z,1011.45
2018-07-20T04:01:18.539Z,1011.45
2018-07-20T04:02:18.645Z,1011.43
2018-07-20T04:03:18.675Z,1011.39
2018-07-20T04:04:18.743Z,1011.45
2018-07-20T04:05:18.799Z,1011.41
2018-07-20T04:06:18.871Z,1011.42
2018-07-20T04:07:18.936Z,1011.40
2018-07-20T04:08:19.007Z,1011.38
2018-07-20T04:09:19.067Z,1011.38
2018-07-20T04:10:19.239Z,1011.36
2018-07-20T04:11:19.191Z,1011.35
2018-07-20T04:12:19.260Z,1011.33
2018-07-20T04:13:19.321Z,1011.33
2018-07-20T04:14:19.404Z,1011.31
2018-07-20T04:15:19.451Z,1011.36
2018-07-20T04:16:19.515Z,1011.35
2018-07-20T04:17:19.584Z,1011.31
2018-07-20T04:18:19.651Z,1011.32
2018-07-20T04:19:19.719Z,1011.33
2018-07-20T04:20:19.787Z,1011.29
2018-07-20T04:21:19.843Z,1011.28
2018-07-20T04:22:19.907Z,1011.30
2018-07-20T04:23:19.971Z,1011.33
2018-07-20T04:24:20.048Z,1011.28
2018-07-20T04:25:20.112Z,1011.29
2018-07-20T04:26:20.179Z,1011.31
2018-07-20T04:27:20.239Z,1011.31
2018-07-20T04:28:20.310Z,1011.29
2018-07-20T04:29:20.371Z,1011.32
2018-07-20T04:30:20.436Z,1011.30
2018-07-20T04:31:20.635Z,1011.33
2018-07-20T04:32:20.571Z,1011.34
2018-07-20T04:33:20.624Z,1011.30
2018-07-20T04:34:20.700Z,1011.27
2018-07-20T04:35:20.864Z,1011.27
2018-07-20T04:36:20.830Z,1011.29
2018-07-20T04:37:20.887Z,1011.29
2018-07-20T04:38:20.951Z,1011.29
2018-07-20T04:39:21.024Z,1011.31
2018-07-20T04:40:21.116Z,1011.29
2018-07-20T04:41:21.169Z,1011.29
2018-07-20T04:42:21.216Z,1011.28
2018-07-20T04:43:21.280Z,1011.25
2018-07-20T04:44:21.356Z,1011.25
2018-07-20T04:45:21.416Z,1011.28
2018-07-20T04:46:21.476Z,1011.28
2018-07-20T04:47:21.544Z,1011.26
2018-07-20T04:48:21.608Z,1011.30
2018-07-20T04:49:21.711Z,1011.29
2018-07-20T04:50:21.744Z,1011.31
2018-07-20T04:51:21.804Z,1011.31
2018-07-20T04:52:21.873Z,1011.29
2018-07-20T04:53:21.932Z,1011.34
2018-07-20T04:54:22.005Z,1011.33
2018-07-20T04:55:22.073Z,1011.34
2018-07-20T04:56:22.128Z,1011.36
2018-07-20T04:57:22.196Z,1011.35
2018-07-20T04:58:22.406Z,1011.34
2018-07-20T04:59:22.333Z,1011.33
2018-07-20T05:00:22.401Z,1011.33
2018-07-20T05:01:22.461Z,1011.30
2018-07-20T05:02:22.521Z,1011.30
2018-07-20T05:03:22.592Z,1011.32
2018-07-20T05:04:22.661Z,1011.33
2018-07-20T05:05:22.720Z,1011.31
2018-07-20T05:06:22.819Z,1011.34
2018-07-20T05:07:22.849Z,1011.34
2018-07-20T05:08:22.917Z,1011.28
2018-07-20T05:09:22.989Z,1011.32
2018-07-20T05:10:23.052Z,1011.33
2018-07-20T05:11:23.115Z,1011.30
2018-07-20T05:12:23.177Z,1011.30
2018-07-20T05:13:23.245Z,1011.31
2018-07-20T05:14:23.610Z,1011.33
2018-07-20T05:15:23.381Z,1011.31
2018-07-20T05:16:23.441Z,1011.31
2018-07-20T05:17:23.505Z,1011.31
2018-07-20T05:18:23.577Z,1011.32
2018-07-20T05:19:23.641Z,1011.32
2018-07-20T05:20:23.709Z,1011.33
2018-07-20T05:21:23.766Z,1011.34
2018-07-20T05:22:23.833Z,1011.32
2018-07-20T05:23:23.897Z,1011.35
2018-07-20T05:24:23.972Z,1011.34
2018-07-20T05:25:24.042Z,1011.39
2018-07-20T05:26:24.094Z,1011.37
2018-07-20T05:27:24.165Z,1011.38
2018-07-20T05:28:24.225Z,1011.40
2018-07-20T05:29:24.444Z,1011.35
2018-07-20T05:30:24.361Z,1011.33
2018-07-20T05:31:24.426Z,1011.35
2018-07-20T05:32:24.490Z,1011.35
2018-07-20T05:33:24.554Z,1011.29
2018-07-20T05:34:24.626Z,1011.29
2018-07-20T05:35:24.697Z,1011.31
2018-07-20T05:36:24.760Z,1011.29
2018-07-20T05:37:24.818Z,1011.30
2018-07-20T05:38:24.883Z,1011.33
2018-07-20T05:39:24.958Z,1011.33
2018-07-20T05:40:25.032Z,1011.31
2018-07-20T05:41:25.082Z,1011.30
2018-07-20T05:42:25.146Z,1011.28
2018-07-20T05:43:25.215Z,1011.33
2018-07-20T05:44:25.386Z,1011.32
2018-07-20T05:45:25.346Z,1011.31
2018-07-20T05:46:25.410Z,1011.31
2018-07-20T05:47:25.474Z,1011.34
2018-07-20T05:48:25.543Z,1011.31
2018-07-20T05:49:25.614Z,1011.33
2018-07-20T05:50:25.678Z,1011.36
2018-07-20T05:51:25.738Z,1011.35
2018-07-20T05:52:25.809Z,1011.35
2018-07-20T05:53:25.878Z,1011.40
2018-07-20T05:54:25.954Z,1011.39
2018-07-20T05:55:26.011Z,1011.38
2018-07-20T05:56:26.072Z,1011.39
2018-07-20T05:57:26.138Z,1011.36
2018-07-20T05:58:26.202Z,1011.40
2018-07-20T05:59:26.270Z,1011.41
2018-07-20T06:00:26.647Z,1011.37
2018-07-20T06:01:26.399Z,1011.36
2018-07-20T06:02:26.462Z,1011.37
2018-07-20T06:03:26.531Z,1011.37
2018-07-20T06:04:26.599Z,1011.35
2018-07-20T06:05:26.693Z,1011.32
2018-07-20T06:06:26.735Z,1011.33
2018-07-20T06:07:26.795Z,1011.29
2018-07-20T06:08:26.863Z,1011.33
2018-07-20T06:09:26.931Z,1011.31
2018-07-20T06:10:27.005Z,1011.33
2018-07-20T06:11:27.067Z,1011.32
2018-07-20T06:12:27.127Z,1011.37
2018-07-20T06:13:27.191Z,1011.36
2018-07-20T06:14:27.259Z,1011.35
2018-07-20T06:15:27.329Z,1011.32
2018-07-20T06:16:27.551Z,1011.36
2018-07-20T06:17:27.455Z,1011.36
2018-07-20T06:18:27.523Z,1011.34
2018-07-20T06:19:27.597Z,1011.37
2018-07-20T06:20:27.655Z,1011.38
2018-07-20T06:21:27.745Z,1011.36
2018-07-20T06:22:27.799Z,1011.37
2018-07-20T06:23:27.913Z,1011.36
2018-07-20T06:24:27.923Z,1011.35
2018-07-20T06:25:27.987Z,1011.34
2018-07-20T06:26:28.062Z,1011.34
2018-07-20T06:27:28.127Z,1011.33
2018-07-20T06:28:28.188Z,1011.36
2018-07-20T06:29:28.252Z,1011.45
2018-07-20T06:30:28.325Z,1011.95
2018-07-20T06:31:28.391Z,1012.34
2018-07-20T06:32:28.460Z,1012.98
2018-07-20T06:33:28.524Z,1012.98
2018-07-20T06:34:28.588Z,1012.95
2018-07-20T06:35:28.655Z,1012.85
2018-07-20T06:36:28.736Z,1012.77
2018-07-20T06:37:28.800Z,1012.79
2018-07-20T06:38:28.864Z,1012.70
2018-07-20T06:39:28.940Z,1012.76
2018-07-20T06:40:29.004Z,1012.78
2018-07-20T06:41:29.472Z,1012.61
2018-07-20T06:42:29.144Z,1012.52
2018-07-20T06:43:29.216Z,1012.47
2018-07-20T06:44:29.292Z,1012.65
2018-07-20T06:45:29.360Z,1012.87
2018-07-20T06:46:29.432Z,1012.79
2018-07-20T06:47:29.520Z,1012.87
2018-07-20T06:48:29.579Z,1013.02
2018-07-20T06:49:29.648Z,1013.11
2018-07-20T06:50:29.724Z,1013.27
2018-07-20T06:51:29.797Z,1013.36
2018-07-20T06:52:29.879Z,1013.34
2018-07-20T06:53:29.949Z,1013.55
2018-07-20T06:54:30.020Z,1013.52
2018-07-20T06:55:30.092Z,1013.55
2018-07-20T06:56:30.172Z,1013.61
2018-07-20T06:57:30.260Z,1013.85
2018-07-20T06:58:30.321Z,1013.96
2018-07-20T06:59:30.392Z,1014.07
2018-07-20T07:00:30.468Z,1014.03
2018-07-20T07:01:30.549Z,1014.04
2018-07-20T07:02:30.624Z,1013.90
2018-07-20T07:03:30.705Z,1013.74
2018-07-20T07:04:30.772Z,1013.61
2018-07-20T07:05:30.849Z,1013.47
2018-07-20T07:06:30.925Z,1013.07
2018-07-20T07:07:31.009Z,1013.02
2018-07-20T07:08:31.089Z,1013.04
2018-07-20T07:09:31.186Z,1012.94
2018-07-20T07:10:31.239Z,1012.75
2018-07-20T07:11:31.312Z,1012.67
2018-07-20T07:12:31.409Z,1012.56
2018-07-20T07:13:31.465Z,1012.57
2018-07-20T07:14:31.541Z,1012.64
2018-07-20T07:15:31.625Z,1012.61
2018-07-20T07:16:31.705Z,1012.58
2018-07-20T07:17:31.781Z,1012.54
2018-07-20T07:18:31.857Z,1012.43
2018-07-20T07:19:31.930Z,1012.45
2018-07-20T07:20:32.009Z,1012.36
2018-07-20T07:21:32.086Z,1012.38
2018-07-20T07:22:32.181Z,1012.34
2018-07-20T07:23:32.293Z,1012.36
2018-07-20T07:24:32.323Z,1012.43
2018-07-20T07:25:32.397Z,1012.37
2018-07-20T07:26:32.481Z,1012.30
2018-07-20T07:27:32.557Z,1012.29
2018-07-20T07:28:32.638Z,1012.35
2018-07-20T07:29:32.711Z,1012.36
2018-07-20T07:30:32.786Z,1012.39
2018-07-20T07:31:32.866Z,1012.39
2018-07-20T07:32:32.950Z,1012.36
2018-07-20T07:33:33.026Z,1012.28
2018-07-20T07:34:33.100Z,1012.27
2018-07-20T07:35:33.174Z,1012.21
2018-07-20T07:36:33.254Z,1012.15
2018-07-20T07:37:33.329Z,1012.09
2018-07-20T07:38:33.426Z,1012.13
2018-07-20T07:39:33.486Z,1012.08
2018-07-20T07:40:33.576Z,1012.08
2018-07-20T07:41:33.642Z,1012.02
2018-07-20T07:42:33.718Z,1011.99
2018-07-20T07:43:33.806Z,1011.97
2018-07-20T07:44:33.887Z,1012.00
2018-07-20T07:45:33.955Z,1011.99
2018-07-20T07:46:34.030Z,1012.00
2018-07-20T07:47:34.111Z,1012.01
2018-07-20T07:48:34.298Z,1012.06
2018-07-20T07:49:34.262Z,1012.08
2018-07-20T07:50:34.342Z,1012.05
2018-07-20T07:51:34.422Z,1012.09
2018-07-20T07:52:34.501Z,1012.03
2018-07-20T07:53:34.582Z,1012.00
2018-07-20T07:54:34.659Z,1011.99
2018-07-20T07:55:34.731Z,1012.02
2018-07-20T07:56:34.811Z,1012.05
2018-07-20T07:57:34.890Z,1012.10
2018-07-20T07:58:34.972Z,1012.12
2018-07-20T07:59:35.054Z,1012.12
2018-07-20T08:00:35.123Z,1011.99
2018-07-20T08:01:35.200Z,1011.98
2018-07-20T08:02:35.275Z,1012.02
2018-07-20T08:03:35.395Z,1012.06
2018-07-20T08:04:35.438Z,1012.08
2018-07-20T08:05:35.511Z,1012.10
2018-07-20T08:06:35.613Z,1012.09
2018-07-20T08:07:35.667Z,1012.06
2018-07-20T08:08:35.755Z,1012.03
2018-07-20T08:09:35.881Z,1012.06
2018-07-20T08:10:35.899Z,1012.15
2018-07-20T08:11:35.979Z,1012.16
2018-07-20T08:12:36.059Z,1012.15
2018-07-20T08:13:36.162Z,1012.18
2018-07-20T08:14:36.223Z,1012.15
2018-07-20T08:15:36.295Z,1012.16
2018-07-20T08:16:36.388Z,1012.17
2018-07-20T08:17:36.451Z,1012.12
2018-07-20T08:18:36.536Z,1012.14
2018-07-20T08:19:36.618Z,1012.13
2018-07-20T08:20:36.687Z,1012.13
2018-07-20T08:21:36.763Z,1012.14
2018-07-20T08:22:36.843Z,1012.16
2018-07-20T08:23:36.930Z,1012.08
2018-07-20T08:24:37.008Z,1012.07
2018-07-20T08:25:37.083Z,1012.05
2018-07-20T08:26:37.164Z,1012.04
2018-07-20T08:27:37.239Z,1012.07
2018-07-20T08:28:37.724Z,1012.06
2018-07-20T08:29:37.396Z,1012.00
2018-07-20T08:30:37.476Z,1012.08
2018-07-20T08:31:37.572Z,1012.08
2018-07-20T08:32:37.632Z,1012.04
2018-07-20T08:33:37.716Z,1012.07
2018-07-20T08:34:37.804Z,1012.07
2018-07-20T08:35:37.872Z,1012.05
2018-07-20T08:36:37.948Z,1012.08
2018-07-20T08:37:38.029Z,1012.34
2018-07-20T08:38:38.108Z,1013.03
2018-07-20T08:39:38.208Z,1013.42
2018-07-20T08:40:38.272Z,1012.94
2018-07-20T08:41:38.344Z,1012.41
2018-07-20T08:42:38.424Z,1012.03
2018-07-20T08:43:38.521Z,1011.96
2018-07-20T08:44:38.601Z,1011.93
2018-07-20T08:45:38.672Z,1011.93
2018-07-20T08:46:38.777Z,1011.93
2018-07-20T08:47:38.836Z,1011.94
2018-07-20T08:48:38.909Z,1011.76
2018-07-20T08:49:39.006Z,1011.81
2018-07-20T08:50:39.073Z,1011.67
2018-07-20T08:51:39.149Z,1011.57
2018-07-20T08:52:39.229Z,1011.54
2018-07-20T08:53:39.305Z,1011.50
2018-07-20T08:54:39.541Z,1011.50
2018-07-20T08:55:39.465Z,1011.48
2018-07-20T08:56:39.545Z,1011.47
2018-07-20T08:57:39.626Z,1011.48
2018-07-20T08:58:39.706Z,1011.46
2018-07-20T08:59:39.789Z,1011.43
2018-07-20T09:00:39.877Z,1011.41
2018-07-20T09:01:39.946Z,1011.39
2018-07-20T09:02:40.022Z,1011.39
2018-07-20T09:03:40.187Z,1011.46
2018-07-20T09:04:40.286Z,1011.42
2018-07-20T09:05:40.258Z,1011.45
2018-07-20T09:06:40.344Z,1011.42
2018-07-20T09:07:40.414Z,1011.46
2018-07-20T09:08:40.494Z,1011.46
2018-07-20T09:09:40.582Z,1011.41
2018-07-20T09:10:40.658Z,1011.37
2018-07-20T09:11:40.732Z,1011.30
2018-07-20T09:12:40.806Z,1011.37
2018-07-20T09:13:41.003Z,1011.38
2018-07-20T09:14:40.970Z,1011.32
2018-07-20T09:15:41.047Z,1011.37
2018-07-20T09:16:41.118Z,1011.37
2018-07-20T09:17:41.198Z,1011.36
2018-07-20T09:18:41.282Z,1011.33
2018-07-20T09:19:41.354Z,1011.31
2018-07-20T09:20:41.622Z,1011.29
2018-07-20T09:21:41.515Z,1011.26
2018-07-20T09:22:41.588Z,1011.21
2018-07-20T09:23:41.666Z,1011.20
2018-07-20T09:24:41.743Z,1011.18
2018-07-20T09:25:41.826Z,1011.16
2018-07-20T09:26:41.910Z,1011.16
2018-07-20T09:27:41.978Z,1011.16
2018-07-20T09:28:42.065Z,1011.19
2018-07-20T09:29:42.130Z,1011.21
2018-07-20T09:30:42.323Z,1011.26
2018-07-20T09:31:42.286Z,1011.25
2018-07-20T09:32:42.367Z,1011.23
2018-07-20T09:33:42.438Z,1011.18
2018-07-20T09:34:42.514Z,1011.20
2018-07-20T09:35:42.599Z,1011.15
2018-07-20T09:36:42.675Z,1011.13
2018-07-20T09:37:42.747Z,1011.05
2018-07-20T09:38:42.826Z,1011.06
2018-07-20T09:39:42.899Z,1011.03
2018-07-20T09:40:42.995Z,1010.99
2018-07-20T09:41:43.059Z,1011.02
2018-07-20T09:42:43.152Z,1011.09
2018-07-20T09:43:43.207Z,1011.15
2018-07-20T09:44:43.283Z,1011.13
2018-07-20T09:45:43.380Z,1011.13
2018-07-20T09:46:43.447Z,1011.10
2018-07-20T09:47:43.515Z,1011.00
2018-07-20T09:48:43.593Z,1011.03
2018-07-20T09:49:43.663Z,1011.03
2018-07-20T09:50:43.747Z,1011.03
2018-07-20T09:51:43.823Z,1011.05
2018-07-20T09:52:43.899Z,1011.06
2018-07-20T09:53:43.971Z,1011.03
2018-07-20T09:54:44.051Z,1011.03
2018-07-20T09:55:44.354Z,1011.00
2018-07-20T09:56:44.200Z,1010.96
2018-07-20T09:57:44.279Z,1010.94
2018-07-20T09:58:44.352Z,1010.99
2018-07-20T09:59:44.460Z,1010.98
2018-07-20T10:00:44.535Z,1010.98
2018-07-20T10:01:44.588Z,1011.01
2018-07-20T10:02:44.660Z,1010.96
2018-07-20T10:03:44.731Z,1010.94
2018-07-20T10:04:44.814Z,1010.96
2018-07-20T10:05:44.892Z,1010.90
2018-07-20T10:06:44.963Z,1010.94
2018-07-20T10:07:45.044Z,1010.91
2018-07-20T10:08:45.119Z,1010.88
2018-07-20T10:09:45.196Z,1010.83
2018-07-20T10:10:45.280Z,1010.87
2018-07-20T10:11:45.344Z,1010.89
2018-07-20T10:12:45.480Z,1010.87
2018-07-20T10:13:45.492Z,1010.85
2018-07-20T10:14:45.568Z,1010.83
2018-07-20T10:15:45.655Z,1010.86
2018-07-20T10:16:45.732Z,1010.83
2018-07-20T10:17:45.796Z,1010.80
2018-07-20T10:18:45.872Z,1010.80
2018-07-20T10:19:45.948Z,1010.77
2018-07-20T10:20:46.034Z,1010.72
2018-07-20T10:21:46.104Z,1010.69
2018-07-20T10:22:46.172Z,1010.69
2018-07-20T10:23:46.248Z,1010.70
2018-07-20T10:24:46.325Z,1010.70
2018-07-20T10:25:46.430Z,1010.76
2018-07-20T10:26:46.480Z,1010.77
2018-07-20T10:27:46.550Z,1010.72
2018-07-20T10:28:46.625Z,1010.73
2018-07-20T10:29:46.701Z,1010.72
2018-07-20T10:30:46.822Z,1010.67
2018-07-20T10:31:46.857Z,1010.70
2018-07-20T10:32:46.925Z,1010.72
2018-07-20T10:33:47.001Z,1010.68
2018-07-20T10:34:47.073Z,1010.62
2018-07-20T10:35:47.173Z,1010.65
2018-07-20T10:36:47.225Z,1010.63
2018-07-20T10:37:47.297Z,1010.63
2018-07-20T10:38:47.372Z,1010.60
2018-07-20T10:39:47.448Z,1010.63
2018-07-20T10:40:47.529Z,1010.63
2018-07-20T10:41:47.605Z,1010.62
2018-07-20T10:42:47.673Z,1010.64
2018-07-20T10:43:47.745Z,1010.62
2018-07-20T10:44:47.820Z,1010.64
2018-07-20T10:45:47.901Z,1010.60
2018-07-20T10:46:47.980Z,1010.60
2018-07-20T10:47:48.045Z,1010.57
2018-07-20T10:48:48.117Z,1010.58
2018-07-20T10:49:48.193Z,1010.56
2018-07-20T10:50:48.269Z,1010.56
2018-07-20T10:51:48.365Z,1010.53
2018-07-20T10:52:48.417Z,1010.48
2018-07-20T10:53:48.489Z,1010.50
2018-07-20T10:54:48.565Z,1010.49
2018-07-20T10:55:48.641Z,1010.49
2018-07-20T10:56:48.721Z,1010.48
2018-07-20T10:57:48.800Z,1010.46
2018-07-20T10:58:48.861Z,1010.47
2018-07-20T10:59:48.941Z,1010.47
2018-07-20T11:00:49.014Z,1010.44
2018-07-20T11:01:49.118Z,1010.45
2018-07-20T11:02:49.158Z,1010.43
2018-07-20T11:03:49.234Z,1010.37
2018-07-20T11:04:49.309Z,1010.40
2018-07-20T11:05:49.381Z,1010.38
2018-07-20T11:06:49.462Z,1010.36
2018-07-20T11:07:49.533Z,1010.37
2018-07-20T11:08:49.602Z,1010.34
2018-07-20T11:09:49.682Z,1010.37
2018-07-20T11:10:49.750Z,1010.34
2018-07-20T11:11:49.829Z,1010.30
2018-07-20T11:12:49.906Z,1010.33
2018-07-20T11:13:50.016Z,1010.30
2018-07-20T11:14:50.054Z,1010.30
2018-07-20T11:15:50.117Z,1010.32
2018-07-20T11:16:50.437Z,1010.33
2018-07-20T11:17:50.266Z,1010.31
2018-07-20T11:18:50.358Z,1010.30
2018-07-20T11:19:50.416Z,1010.31
2018-07-20T11:20:50.486Z,1010.31
2018-07-20T11:21:50.570Z,1010.28
2018-07-20T11:22:50.638Z,1010.31
2018-07-20T11:23:50.706Z,1010.23
2018-07-20T11:24:50.782Z,1010.21
2018-07-20T11:25:50.857Z,1010.21
2018-07-20T11:26:50.934Z,1010.26
2018-07-20T11:27:51.006Z,1010.23
2018-07-20T11:28:51.074Z,1010.23
2018-07-20T11:29:51.150Z,1010.20
2018-07-20T11:30:51.222Z,1010.16
2018-07-20T11:31:51.295Z,1010.19
2018-07-20T11:32:51.530Z,1010.15
2018-07-20T11:33:51.438Z,1010.15
2018-07-20T11:34:51.516Z,1010.15
2018-07-20T11:35:51.586Z,1010.14
2018-07-20T11:36:51.662Z,1010.13
2018-07-20T11:37:51.740Z,1010.14
2018-07-20T11:38:51.814Z,1010.18
2018-07-20T11:39:51.878Z,1010.16
2018-07-20T11:40:51.962Z,1010.16
2018-07-20T11:41:52.040Z,1010.16
2018-07-20T11:42:52.114Z,1010.16
2018-07-20T11:43:52.170Z,1010.17
2018-07-20T11:44:52.250Z,1010.16
2018-07-20T11:45:52.327Z,1010.16
2018-07-20T11:46:52.390Z,1010.16
2018-07-20T11:47:52.480Z,1010.15
2018-07-20T11:48:52.547Z,1010.16
2018-07-20T11:49:52.611Z,1010.16
2018-07-20T11:50:52.683Z,1010.11
2018-07-20T11:51:52.761Z,1010.08
2018-07-20T11:52:52.839Z,1010.09
2018-07-20T11:53:52.911Z,1010.08
2018-07-20T11:54:52.979Z,1010.05
2018-07-20T11:55:53.068Z,1010.04
2018-07-20T11:56:53.123Z,1010.04
2018-07-20T11:57:53.215Z,1010.01
2018-07-20T11:58:53.271Z,1010.00
2018-07-20T11:59:53.347Z,1010.02
2018-07-20T12:00:53.415Z,1009.97
2018-07-20T12:01:53.510Z,1009.99
2018-07-20T12:02:53.571Z,1009.95
2018-07-20T12:03:53.643Z,1009.99
2018-07-20T12:04:53.708Z,1009.93
2018-07-20T12:05:53.780Z,1009.92